Accueil
METAR-TAF:

METAR-TAF

Aéroports :

Fairford, Angleterre

latitude: 51-41N, longitude: 001-47W, altitude: 87 m

Observation

Le bulletin a été fait il y a 11 minutes, à 05:01 UTC
Vent 4 kt de sud-est
Température 4°C
Humidité 100%
Pression 1021 hPa
Quelques nuages à une hauteur de 400 ft
Nuages épars à une hauteur de 2400 ft
Nuages épars à une hauteur de 3000 ft
Nuages fragmentés à une hauteur de 4200 ft
Nuages fragmentés à une hauteur de 6000 ft
brume

METAR: EGVA 180501Z AUTO 13004KT M BR FEW004 SCT024 SCT030 BKN042 BKN060 04/04 A3014 RMK AO2 SLP213 RVRNO $

Heure: 05:12 (05:12 UTC)


TAF: absent

Observations et prévisions météorologiques de plus de 4000 aéroports (messages METAR et TAF).

Les stations disponibles sont représentées par des disques jaunes et rouges sur la carte.

Passer la souris dessus pour voir le nom de la station.

Cliquer dessus pour voir les observations et prévisions météorologiques.

Pour changer de carte: cliquez sur les boutons verts avec une croix noire pour zoomer, sur le bouton vert avec un tiret pour effectuer un zoom arrière, ou sur les flèches vertes pour les cartes adjacentes.


METAR-TAF: